Time;durP1;ratioP1;P1;durP2;ratioP2;P2;SDS_P1;SDS_P2;PMS_P1;PMS_P2;Temp;Humidity;BMP_temperature;BMP_pressure;BME280_temperature;BME280_humidity;BME280_pressure;Samples;Min_cycle;Max_cycle;Signal;HPM_P1;HPM_P2
2022/01/03 00:01:14;;;;;;;;;;;11.70;99.90;;;;;;5072274;28;19921;-66
2022/01/03 00:03:40;;;;;;;;;;;11.70;99.90;;;;;;5072466;28;19938;-66
2022/01/03 00:06:05;;;;;;;;;;;11.70;99.90;;;;;;5074472;28;20331;-65
2022/01/03 00:08:31;;;;;;;;;;;11.70;99.90;;;;;;5074404;28;19912;-65
2022/01/03 00:10:57;;;;;;;;;;;11.60;99.90;;;;;;5074058;28;20022;-65
2022/01/03 00:13:22;;;;;;;;;;;11.60;99.90;;;;;;5074327;28;19926;-63
2022/01/03 00:15:48;;;;;;;;;;;11.70;99.90;;;;;;5072272;28;19987;-64
2022/01/03 00:18:14;;;;;;;;;;;11.60;99.90;;;;;;5074298;28;20308;-64
2022/01/03 00:20:40;;;;;;;;;;;11.70;99.90;;;;;;5074047;28;20008;-64
2022/01/03 00:23:06;;;;;;;;;;;11.60;99.90;;;;;;5074285;28;19912;-63
2022/01/03 00:25:35;;;;;;;;;;;11.60;99.90;;;;;;5064415;28;19920;-65
2022/01/03 00:28:11;;;;;;;;;;;11.60;99.90;;;;;;5071894;28;19981;-66
2022/01/03 00:30:39;;;;;;;;;;;11.60;99.90;;;;;;5071407;28;20404;-64
2022/01/03 00:33:05;;;;;;;;;;;11.50;99.90;;;;;;5073663;28;19921;-65
2022/01/03 00:35:33;;;;;;;;;;;11.50;99.90;;;;;;5072882;28;19912;-66
2022/01/03 00:38:00;;;;;;;;;;;11.50;99.90;;;;;;5073803;28;20340;-66
2022/01/03 00:40:25;;;;;;;;;;;11.50;99.90;;;;;;5073972;28;19920;-65
2022/01/03 00:42:51;;;;;;;;;;;11.50;99.90;;;;;;5071236;28;19908;-66
2022/01/03 00:45:17;;;;;;;;;;;11.40;99.90;;;;;;5073624;28;19963;-65
2022/01/03 00:47:44;;;;;;;;;;;11.40;99.90;;;;;;5074095;28;19919;-65
2022/01/03 00:50:11;;;;;;;;;;;11.40;99.90;;;;;;5074073;28;19927;-66
2022/01/03 00:52:37;;;;;;;;;;;11.40;99.90;;;;;;5073404;28;19942;-65
2022/01/03 00:55:03;;;;;;;;;;;11.40;99.90;;;;;;5072638;28;19912;-66
2022/01/03 00:57:38;;;;;;;;;;;11.40;99.90;;;;;;5069376;28;20324;-66
2022/01/03 01:00:06;;;;;;;;;;;11.30;99.90;;;;;;5073114;28;19920;-65
2022/01/03 01:02:38;;;;;;;;;;;11.40;99.90;;;;;;5055251;28;20277;-65
2022/01/03 01:05:04;;;;;;;;;;;11.30;99.90;;;;;;5073222;28;20327;-64
2022/01/03 01:07:31;;;;;;;;;;;11.40;99.90;;;;;;5073847;28;20000;-65
2022/01/03 01:09:59;;;;;;;;;;;11.30;99.90;;;;;;5071197;28;19912;-65
2022/01/03 01:12:25;;;;;;;;;;;11.30;99.90;;;;;;5073206;28;20149;-63
2022/01/03 01:14:50;;;;;;;;;;;11.30;99.90;;;;;;5049389;28;19936;-65
2022/01/03 01:17:16;;;;;;;;;;;11.30;99.90;;;;;;5073406;28;19999;-63
2022/01/03 01:19:41;;;;;;;;;;;11.30;99.90;;;;;;5055592;28;20002;-65
2022/01/03 01:22:07;;;;;;;;;;;11.30;99.90;;;;;;5071362;28;19920;-64
2022/01/03 01:24:45;;;;;;;;;;;11.20;99.90;;;;;;5073542;28;19962;-65
2022/01/03 01:29:55;;;;;;;;;;;11.20;99.90;;;;;;5073579;28;20391;-65
2022/01/03 01:32:20;;;;;;;;;;;11.20;99.90;;;;;;5073149;28;19944;-66
2022/01/03 01:34:49;;;;;;;;;;;11.20;99.90;;;;;;5071932;28;19956;-64
2022/01/03 01:37:18;;;;;;;;;;;11.20;99.90;;;;;;5054651;28;23378;-65
2022/01/03 01:39:46;;;;;;;;;;;11.20;99.90;;;;;;5071243;28;19942;-64
2022/01/03 01:42:12;;;;;;;;;;;11.20;99.90;;;;;;5072740;28;19991;-63
2022/01/03 01:44:38;;;;;;;;;;;11.20;99.90;;;;;;5073021;28;19923;-63
2022/01/03 01:47:04;;;;;;;;;;;11.20;99.90;;;;;;5072928;28;20289;-64
2022/01/03 01:49:36;;;;;;;;;;;11.20;99.90;;;;;;5072990;28;19920;-65
2022/01/03 01:52:02;;;;;;;;;;;11.20;99.90;;;;;;5071599;28;19923;-65
2022/01/03 01:54:32;;;;;;;;;;;11.20;99.90;;;;;;5071170;28;20007;-65
2022/01/03 01:57:07;;;;;;;;;;;11.20;99.90;;;;;;5072512;28;20284;-64
2022/01/03 01:59:52;;;;;;;;;;;11.10;99.90;;;;;;5073219;28;19990;-65
2022/01/03 02:02:26;;;;;;;;;;;11.10;99.90;;;;;;5073223;28;19912;-63
2022/01/03 02:04:58;;;;;;;;;;;11.10;99.90;;;;;;5054863;28;19920;-66
2022/01/03 02:07:53;;;;;;;;;;;11.10;99.90;;;;;;5073163;28;19931;-65
2022/01/03 02:10:21;;;;;;;;;;;11.10;99.90;;;;;;5056563;28;19928;-62
2022/01/03 02:12:48;;;;;;;;;;;11.00;99.90;;;;;;5066278;28;19913;-65
2022/01/03 02:15:15;;;;;;;;;;;11.00;99.90;;;;;;5072324;28;19912;-63
2022/01/03 02:17:44;;;;;;;;;;;11.00;99.90;;;;;;5072399;28;19916;-65
2022/01/03 02:20:11;;;;;;;;;;;11.00;99.90;;;;;;5074463;28;19913;-65
2022/01/03 02:22:38;;;;;;;;;;;11.00;99.90;;;;;;5076399;28;20303;-65
2022/01/03 02:25:04;;;;;;;;;;;10.90;99.90;;;;;;5074273;28;19986;-64
2022/01/03 02:27:31;;;;;;;;;;;10.90;99.90;;;;;;5072800;28;19958;-64
2022/01/03 02:29:56;;;;;;;;;;;10.90;99.90;;;;;;5076378;28;19913;-64
2022/01/03 02:32:22;;;;;;;;;;;10.90;99.90;;;;;;5074748;28;19917;-65
2022/01/03 02:34:47;;;;;;;;;;;10.80;99.90;;;;;;5076795;28;20000;-64
2022/01/03 02:37:13;;;;;;;;;;;10.80;99.90;;;;;;5075763;28;19920;-65
2022/01/03 02:39:38;;;;;;;;;;;10.80;99.90;;;;;;5074630;28;20331;-64
2022/01/03 02:42:04;;;;;;;;;;;10.80;99.90;;;;;;5076221;28;20413;-65
2022/01/03 02:44:30;;;;;;;;;;;10.80;99.90;;;;;;5076232;28;19916;-65
2022/01/03 02:46:55;;;;;;;;;;;10.80;99.90;;;;;;5075976;28;19943;-65
2022/01/03 02:49:21;;;;;;;;;;;10.80;99.90;;;;;;5076104;28;19916;-65
2022/01/03 02:51:46;;;;;;;;;;;10.80;99.90;;;;;;5073925;28;19927;-65
2022/01/03 02:54:13;;;;;;;;;;;10.80;99.90;;;;;;5074609;28;19923;-65
2022/01/03 02:56:41;;;;;;;;;;;10.80;99.90;;;;;;5058269;28;19965;-65
2022/01/03 02:59:13;;;;;;;;;;;10.80;99.90;;;;;;5075863;28;19916;-65
2022/01/03 03:01:40;;;;;;;;;;;10.80;99.90;;;;;;5075845;28;20025;-63
2022/01/03 03:04:06;;;;;;;;;;;10.80;99.90;;;;;;5073603;28;19935;-65
2022/01/03 03:06:31;;;;;;;;;;;10.80;99.90;;;;;;5057986;28;20373;-65
2022/01/03 03:08:58;;;;;;;;;;;10.80;99.90;;;;;;5075503;28;19923;-65
2022/01/03 03:11:24;;;;;;;;;;;10.80;99.90;;;;;;5074243;28;19920;-65
2022/01/03 03:13:49;;;;;;;;;;;10.80;99.90;;;;;;5075647;28;19912;-65
2022/01/03 03:16:14;;;;;;;;;;;10.80;99.90;;;;;;5074921;28;19916;-65
2022/01/03 03:18:43;;;;;;;;;;;10.80;99.90;;;;;;5074120;28;19908;-65
2022/01/03 03:21:08;;;;;;;;;;;10.80;99.90;;;;;;5075268;28;19940;-64
2022/01/03 03:23:34;;;;;;;;;;;10.80;99.90;;;;;;5075215;28;20404;-65
2022/01/03 03:25:59;;;;;;;;;;;10.90;99.90;;;;;;5075297;28;20014;-65
2022/01/03 03:28:25;;;;;;;;;;;10.90;99.90;;;;;;5075263;28;19941;-65
2022/01/03 03:30:52;;;;;;;;;;;10.90;99.90;;;;;;5072744;28;19998;-65
2022/01/03 03:33:18;;;;;;;;;;;10.90;99.90;;;;;;5073449;28;19909;-66
2022/01/03 03:35:45;;;;;;;;;;;10.90;99.90;;;;;;5075126;28;19940;-65
2022/01/03 03:38:10;;;;;;;;;;;10.90;99.90;;;;;;5075166;28;19912;-64
2022/01/03 03:40:36;;;;;;;;;;;10.80;99.90;;;;;;5075520;28;20269;-65
2022/01/03 03:43:02;;;;;;;;;;;10.80;99.90;;;;;;5072918;28;20273;-63
2022/01/03 03:45:28;;;;;;;;;;;10.90;99.90;;;;;;5075082;28;19954;-65
2022/01/03 03:47:53;;;;;;;;;;;10.80;99.90;;;;;;5056913;28;19919;-64
2022/01/03 03:50:19;;;;;;;;;;;10.90;99.90;;;;;;5073861;28;19920;-65
2022/01/03 03:52:45;;;;;;;;;;;10.90;99.90;;;;;;5074784;28;19955;-64
2022/01/03 03:55:13;;;;;;;;;;;11.00;99.90;;;;;;5073716;28;19959;-65
2022/01/03 03:57:39;;;;;;;;;;;10.90;99.90;;;;;;5073506;28;20364;-64
2022/01/03 04:00:06;;;;;;;;;;;10.90;99.90;;;;;;5074568;28;19948;-64
2022/01/03 04:02:32;;;;;;;;;;;10.90;99.90;;;;;;5074602;28;19966;-64
2022/01/03 04:04:59;;;;;;;;;;;10.90;99.90;;;;;;5074887;28;19913;-67
2022/01/03 04:07:24;;;;;;;;;;;10.90;99.90;;;;;;5074374;28;19926;-65
2022/01/03 04:09:50;;;;;;;;;;;10.90;99.90;;;;;;5072359;28;19912;-64
2022/01/03 04:12:15;;;;;;;;;;;11.00;99.90;;;;;;5074495;28;19924;-65
2022/01/03 04:14:41;;;;;;;;;;;11.00;99.90;;;;;;5074343;28;19909;-64
2022/01/03 04:17:06;;;;;;;;;;;11.00;99.90;;;;;;5074630;28;19952;-64
2022/01/03 04:19:32;;;;;;;;;;;10.90;99.90;;;;;;5074526;28;19908;-64
2022/01/03 04:21:57;;;;;;;;;;;10.90;99.90;;;;;;5071961;28;19958;-65
2022/01/03 04:24:23;;;;;;;;;;;11.00;99.90;;;;;;5074330;28;19912;-64
2022/01/03 04:26:49;;;;;;;;;;;11.00;99.90;;;;;;5074276;28;20274;-63
2022/01/03 04:29:15;;;;;;;;;;;10.90;99.90;;;;;;5072701;28;19995;-64
2022/01/03 04:31:40;;;;;;;;;;;11.00;99.90;;;;;;5074060;28;20015;-65
2022/01/03 04:34:08;;;;;;;;;;;10.90;99.90;;;;;;5072329;28;19973;-65
2022/01/03 04:36:34;;;;;;;;;;;10.90;99.90;;;;;;5073219;28;19912;-65
2022/01/03 04:38:59;;;;;;;;;;;11.00;99.90;;;;;;5074135;28;19965;-64
2022/01/03 04:41:25;;;;;;;;;;;11.00;99.90;;;;;;5073917;28;20009;-64
2022/01/03 04:43:50;;;;;;;;;;;10.90;99.90;;;;;;5073692;28;19915;-64
2022/01/03 04:46:16;;;;;;;;;;;11.00;99.90;;;;;;5073172;28;19935;-62
2022/01/03 04:48:42;;;;;;;;;;;11.00;99.90;;;;;;5072669;28;20384;-64
2022/01/03 04:51:08;;;;;;;;;;;10.90;99.90;;;;;;5071845;28;20262;-64
2022/01/03 04:53:37;;;;;;;;;;;11.00;99.90;;;;;;5073614;28;20339;-65
2022/01/03 04:56:03;;;;;;;;;;;10.90;99.90;;;;;;5073586;28;19915;-64
2022/01/03 04:58:28;;;;;;;;;;;11.00;99.90;;;;;;5073894;28;19934;-61
2022/01/03 05:00:54;;;;;;;;;;;10.90;99.90;;;;;;5071185;28;19909;-65
2022/01/03 05:03:19;;;;;;;;;;;10.90;99.90;;;;;;5073979;28;19939;-64
2022/01/03 05:05:45;;;;;;;;;;;10.90;99.90;;;;;;5072724;28;19916;-65
2022/01/03 05:08:10;;;;;;;;;;;11.00;99.90;;;;;;5072378;28;19922;-64
2022/01/03 05:10:36;;;;;;;;;;;11.00;99.90;;;;;;5073372;28;19920;-64
2022/01/03 05:13:01;;;;;;;;;;;11.00;99.90;;;;;;5071102;28;19954;-64
2022/01/03 05:15:27;;;;;;;;;;;11.00;99.90;;;;;;5073418;28;19954;-64
2022/01/03 05:17:52;;;;;;;;;;;11.00;99.90;;;;;;5073555;28;20335;-61
2022/01/03 05:20:18;;;;;;;;;;;11.00;99.90;;;;;;5073215;28;19973;-62
2022/01/03 05:22:44;;;;;;;;;;;11.00;99.90;;;;;;5073617;28;19913;-64
2022/01/03 05:25:10;;;;;;;;;;;11.00;99.90;;;;;;5071436;28;20467;-62
2022/01/03 05:27:37;;;;;;;;;;;11.00;99.90;;;;;;5073185;28;19916;-65
2022/01/03 05:30:03;;;;;;;;;;;11.00;99.90;;;;;;5071547;28;19912;-66
2022/01/03 05:32:29;;;;;;;;;;;11.10;99.90;;;;;;5072965;28;20323;-64
2022/01/03 05:34:54;;;;;;;;;;;11.10;99.90;;;;;;5073355;28;19913;-64
2022/01/03 05:37:20;;;;;;;;;;;11.00;99.90;;;;;;5073060;28;19913;-64
2022/01/03 05:39:45;;;;;;;;;;;11.10;99.90;;;;;;5071244;28;21027;-64
2022/01/03 05:42:11;;;;;;;;;;;11.00;99.90;;;;;;5072810;28;19912;-65
2022/01/03 05:44:36;;;;;;;;;;;11.10;99.90;;;;;;5072948;28;19966;-66
2022/01/03 05:47:02;;;;;;;;;;;11.00;99.90;;;;;;5049143;28;19951;-64
2022/01/03 05:49:27;;;;;;;;;;;11.00;99.90;;;;;;5072855;28;20284;-65
2022/01/03 05:51:53;;;;;;;;;;;11.00;99.90;;;;;;5052902;28;19917;-64
2022/01/03 05:54:18;;;;;;;;;;;11.00;99.90;;;;;;5073802;28;19909;-65
2022/01/03 05:56:44;;;;;;;;;;;11.00;99.90;;;;;;5076889;28;20289;-64
2022/01/03 05:59:09;;;;;;;;;;;11.00;99.90;;;;;;5077054;28;19967;-64
2022/01/03 06:01:35;;;;;;;;;;;11.10;99.90;;;;;;5077015;28;19958;-65
2022/01/03 06:04:11;;;;;;;;;;;11.10;99.90;;;;;;5074478;28;19954;-64
2022/01/03 06:06:54;;;;;;;;;;;11.10;99.90;;;;;;5073244;28;19916;-64
2022/01/03 06:09:22;;;;;;;;;;;11.00;99.90;;;;;;5075269;28;19935;-64
2022/01/03 06:11:47;;;;;;;;;;;11.00;99.90;;;;;;5076004;28;19927;-64
2022/01/03 06:14:16;;;;;;;;;;;11.00;99.90;;;;;;5073779;28;19920;-64
2022/01/03 06:16:42;;;;;;;;;;;11.00;99.90;;;;;;5076539;28;19912;-63
2022/01/03 06:19:08;;;;;;;;;;;11.00;99.90;;;;;;5074148;28;19909;-63
2022/01/03 06:21:40;;;;;;;;;;;11.00;99.90;;;;;;5076099;28;19954;-62
2022/01/03 06:24:06;;;;;;;;;;;11.10;99.90;;;;;;5075691;28;20186;-65
2022/01/03 06:26:32;;;;;;;;;;;11.10;99.90;;;;;;5074860;28;19912;-66
2022/01/03 06:28:57;;;;;;;;;;;11.10;99.90;;;;;;5075877;28;19920;-65
2022/01/03 06:31:22;;;;;;;;;;;11.10;99.90;;;;;;5075768;28;20627;-66
2022/01/03 06:33:48;;;;;;;;;;;11.10;99.90;;;;;;5074145;28;19912;-65
2022/01/03 06:36:13;;;;;;;;;;;11.00;99.90;;;;;;5075617;28;19954;-65
2022/01/03 06:38:39;;;;;;;;;;;11.00;99.90;;;;;;5075805;28;19917;-66
2022/01/03 06:41:04;;;;;;;;;;;11.00;99.90;;;;;;5076174;28;19962;-64
2022/01/03 06:43:30;;;;;;;;;;;11.10;99.90;;;;;;5075663;28;19955;-66
2022/01/03 06:45:55;;;;;;;;;;;11.00;99.90;;;;;;5073002;28;19916;-66
2022/01/03 06:48:21;;;;;;;;;;;11.10;99.90;;;;;;5074243;28;19912;-65
2022/01/03 06:50:46;;;;;;;;;;;11.10;99.90;;;;;;5075536;28;19964;-66
2022/01/03 06:53:12;;;;;;;;;;;11.10;99.90;;;;;;5075283;28;19916;-64
2022/01/03 06:55:37;;;;;;;;;;;11.10;99.90;;;;;;5075923;28;20331;-65
2022/01/03 06:58:03;;;;;;;;;;;11.10;99.90;;;;;;5073322;28;19951;-64
2022/01/03 07:00:28;;;;;;;;;;;11.10;99.90;;;;;;5074226;28;19943;-63
2022/01/03 07:02:54;;;;;;;;;;;11.10;99.90;;;;;;5072826;28;19923;-66
2022/01/03 07:05:19;;;;;;;;;;;11.10;99.90;;;;;;5071286;28;19995;-65
2022/01/03 07:07:45;;;;;;;;;;;11.00;99.90;;;;;;5069396;28;20304;-66
2022/01/03 07:10:11;;;;;;;;;;;11.00;99.90;;;;;;5067979;28;19921;-69
2022/01/03 07:12:37;;;;;;;;;;;11.10;99.90;;;;;;5071887;28;19913;-69
2022/01/03 07:20:31;;;;;;;;;;;11.10;99.90;;;;;;5067193;28;19962;-64
2022/01/03 07:22:56;;;;;;;;;;;11.10;99.90;;;;;;5068861;28;19920;-65
2022/01/03 07:25:22;;;;;;;;;;;11.10;99.90;;;;;;5068787;28;19996;-63
2022/01/03 07:27:47;;;;;;;;;;;11.10;99.90;;;;;;5072567;28;19917;-65
2022/01/03 07:30:13;;;;;;;;;;;11.10;99.90;;;;;;5065004;28;20031;-65
2022/01/03 07:32:41;;;;;;;;;;;11.10;99.90;;;;;;5058875;28;19921;-65
2022/01/03 07:35:07;;;;;;;;;;;11.10;99.90;;;;;;5067336;28;19917;-65
2022/01/03 07:37:33;;;;;;;;;;;11.10;99.90;;;;;;5066858;28;20320;-63
2022/01/03 07:39:58;;;;;;;;;;;11.10;99.90;;;;;;5067923;28;19916;-62
2022/01/03 07:42:24;;;;;;;;;;;11.10;99.90;;;;;;5068220;28;19924;-65
2022/01/03 07:44:49;;;;;;;;;;;11.10;99.90;;;;;;5067677;28;19913;-64
2022/01/03 07:47:15;;;;;;;;;;;11.10;99.90;;;;;;5068111;28;19919;-64
2022/01/03 07:49:40;;;;;;;;;;;11.10;99.90;;;;;;5066024;28;19920;-63
2022/01/03 07:52:06;;;;;;;;;;;11.10;99.90;;;;;;5068653;28;19927;-61
2022/01/03 07:54:31;;;;;;;;;;;11.10;99.90;;;;;;5069967;28;19913;-63
2022/01/03 07:56:57;;;;;;;;;;;11.10;99.90;;;;;;5066489;28;19934;-63
2022/01/03 07:59:22;;;;;;;;;;;11.10;99.90;;;;;;5069105;28;19919;-64
2022/01/03 08:01:48;;;;;;;;;;;11.10;99.90;;;;;;5066308;28;19916;-64
2022/01/03 08:04:13;;;;;;;;;;;11.10;99.90;;;;;;5067582;28;20095;-64
2022/01/03 08:06:39;;;;;;;;;;;11.10;99.90;;;;;;5069522;28;19913;-63
2022/01/03 08:09:04;;;;;;;;;;;11.10;99.90;;;;;;5066257;28;19955;-63
2022/01/03 08:11:30;;;;;;;;;;;11.10;99.90;;;;;;5066224;28;19924;-65
2022/01/03 08:13:55;;;;;;;;;;;11.10;99.90;;;;;;5065904;28;20488;-66
2022/01/03 08:16:21;;;;;;;;;;;11.10;99.90;;;;;;5066724;28;20346;-65
2022/01/03 08:18:46;;;;;;;;;;;11.10;99.90;;;;;;5069620;28;19926;-65
2022/01/03 08:21:14;;;;;;;;;;;11.10;99.90;;;;;;5065117;28;19956;-63
2022/01/03 08:23:39;;;;;;;;;;;11.10;99.90;;;;;;5066608;28;19969;-65
2022/01/03 08:26:05;;;;;;;;;;;11.10;99.90;;;;;;5067882;28;19913;-64
2022/01/03 08:28:30;;;;;;;;;;;11.10;99.90;;;;;;5065398;28;20011;-65
2022/01/03 08:30:56;;;;;;;;;;;11.10;99.90;;;;;;5068293;28;20293;-64
2022/01/03 08:33:21;;;;;;;;;;;11.10;99.90;;;;;;5068713;28;19917;-66
2022/01/03 08:35:47;;;;;;;;;;;11.20;99.90;;;;;;5067002;28;19985;-64
2022/01/03 08:38:12;;;;;;;;;;;11.20;99.90;;;;;;5067170;28;20347;-64
2022/01/03 08:40:39;;;;;;;;;;;11.20;99.90;;;;;;5067529;28;19912;-64
2022/01/03 08:43:04;;;;;;;;;;;11.20;99.90;;;;;;5067319;28;19912;-63
2022/01/03 08:45:30;;;;;;;;;;;11.30;99.90;;;;;;5069629;28;20416;-66
2022/01/03 08:47:55;;;;;;;;;;;11.30;99.90;;;;;;5067141;28;19913;-65
2022/01/03 08:50:21;;;;;;;;;;;11.30;99.90;;;;;;5067427;28;19938;-65
2022/01/03 08:52:48;;;;;;;;;;;11.30;99.90;;;;;;5067553;28;19921;-65
2022/01/03 08:55:13;;;;;;;;;;;11.30;99.90;;;;;;5067194;28;19920;-63
2022/01/03 08:57:41;;;;;;;;;;;11.30;99.90;;;;;;5069059;28;19917;-64
2022/01/03 09:00:07;;;;;;;;;;;11.40;99.90;;;;;;5067864;28;19970;-64
2022/01/03 09:02:32;;;;;;;;;;;11.40;99.90;;;;;;5064444;28;19987;-64
2022/01/03 09:04:58;;;;;;;;;;;11.40;99.90;;;;;;5066804;28;19913;-63
2022/01/03 09:07:23;;;;;;;;;;;11.40;99.90;;;;;;5066388;28;20349;-64
2022/01/03 09:09:49;;;;;;;;;;;11.50;99.90;;;;;;5069350;28;20006;-64
2022/01/03 09:12:14;;;;;;;;;;;11.50;99.90;;;;;;5066568;28;19924;-64
2022/01/03 09:14:40;;;;;;;;;;;11.40;99.90;;;;;;5066798;28;19917;-65
2022/01/03 09:17:05;;;;;;;;;;;11.50;99.90;;;;;;5066717;28;19917;-62
2022/01/03 09:19:31;;;;;;;;;;;11.50;99.90;;;;;;5066923;28;19913;-61
2022/01/03 09:30:10;;;;;;;;;;;11.60;99.90;;;;;;4994077;28;19965;-65
2022/01/03 09:32:35;;;;;;;;;;;11.60;99.90;;;;;;4990033;28;20008;-63
2022/01/03 09:35:01;;;;;;;;;;;11.60;99.90;;;;;;4988438;28;20005;-63
2022/01/03 09:37:27;;;;;;;;;;;11.60;99.90;;;;;;4994058;28;19928;-64
2022/01/03 09:39:54;;;;;;;;;;;11.70;99.90;;;;;;4999155;28;19925;-66
2022/01/03 09:42:21;;;;;;;;;;;11.70;99.90;;;;;;4994576;28;19924;-64
2022/01/03 09:44:48;;;;;;;;;;;11.70;99.90;;;;;;4992811;28;19918;-63
2022/01/03 09:47:15;;;;;;;;;;;11.70;99.90;;;;;;4993401;28;19972;-64
2022/01/03 09:49:41;;;;;;;;;;;11.70;99.90;;;;;;4993150;28;20291;-65
2022/01/03 09:52:07;;;;;;;;;;;11.70;99.90;;;;;;4997227;28;19949;-64
2022/01/03 09:54:33;;;;;;;;;;;11.80;99.90;;;;;;4995590;28;20548;-63
2022/01/03 09:57:00;;;;;;;;;;;11.80;99.90;;;;;;4992361;28;20020;-65
2022/01/03 09:59:25;;;;;;;;;;;11.80;99.90;;;;;;4993957;28;20007;-64
2022/01/03 10:01:52;;;;;;;;;;;11.80;99.90;;;;;;5046231;28;20003;-62
2022/01/03 10:04:18;;;;;;;;;;;11.90;99.90;;;;;;5064941;28;19912;-63
2022/01/03 10:06:44;;;;;;;;;;;11.90;99.90;;;;;;5066004;28;19919;-63
2022/01/03 10:09:10;;;;;;;;;;;11.90;99.90;;;;;;5064314;28;19922;-62
2022/01/03 10:11:35;;;;;;;;;;;11.90;99.90;;;;;;5064349;28;19970;-64
2022/01/03 10:14:00;;;;;;;;;;;11.90;99.90;;;;;;5064429;28;19912;-64
2022/01/03 10:16:28;;;;;;;;;;;11.90;99.90;;;;;;5064250;28;19928;-64
2022/01/03 10:18:53;;;;;;;;;;;11.90;99.90;;;;;;5067358;28;19963;-63
2022/01/03 10:21:34;;;;;;;;;;;11.90;99.90;;;;;;5062943;28;20389;-64
2022/01/03 10:24:00;;;;;;;;;;;12.00;99.90;;;;;;5063124;28;19948;-65
2022/01/03 10:26:25;;;;;;;;;;;12.00;99.90;;;;;;5066727;28;19966;-64
2022/01/03 10:29:08;;;;;;;;;;;12.00;99.90;;;;;;5064295;28;19969;-63
2022/01/03 10:31:37;;;;;;;;;;;12.00;99.90;;;;;;5062360;28;19921;-62
2022/01/03 10:34:07;;;;;;;;;;;12.00;99.90;;;;;;5048438;28;19954;-63
2022/01/03 10:36:33;;;;;;;;;;;12.00;99.90;;;;;;5066603;28;19916;-64
2022/01/03 10:39:10;;;;;;;;;;;12.10;99.90;;;;;;5063856;28;19975;-63
2022/01/03 10:41:35;;;;;;;;;;;12.10;99.90;;;;;;5066142;28;20461;-65
2022/01/03 10:44:01;;;;;;;;;;;12.10;99.90;;;;;;5067583;28;19912;-63
2022/01/03 10:46:27;;;;;;;;;;;12.10;99.90;;;;;;5068213;28;19950;-63
2022/01/03 10:48:56;;;;;;;;;;;12.10;99.90;;;;;;5070558;28;19923;-65
2022/01/03 10:51:25;;;;;;;;;;;12.10;99.90;;;;;;5069683;28;20325;-63
2022/01/03 10:53:53;;;;;;;;;;;12.20;99.90;;;;;;5067065;28;20377;-62
2022/01/03 10:56:38;;;;;;;;;;;12.20;99.90;;;;;;5068091;28;19981;-65
2022/01/03 10:59:22;;;;;;;;;;;12.10;99.90;;;;;;5065414;28;19966;-63
2022/01/03 11:01:50;;;;;;;;;;;12.20;99.90;;;;;;5067801;28;19912;-64
2022/01/03 11:04:25;;;;;;;;;;;12.20;99.90;;;;;;5070813;28;19927;-63
2022/01/03 11:10:43;;;;;;;;;;;12.20;99.90;;;;;;5075656;28;20518;-65
2022/01/03 11:13:12;;;;;;;;;;;12.30;99.90;;;;;;5070142;28;19990;-64
2022/01/03 11:15:58;;;;;;;;;;;12.30;99.90;;;;;;5069957;28;19912;-64
2022/01/03 11:18:25;;;;;;;;;;;12.30;99.90;;;;;;5063870;28;19917;-63
2022/01/03 11:21:02;;;;;;;;;;;12.40;99.90;;;;;;5042217;28;20382;-62
2022/01/03 11:23:28;;;;;;;;;;;12.40;99.90;;;;;;5066610;28;19912;-64
2022/01/03 11:25:54;;;;;;;;;;;12.50;99.90;;;;;;5056005;28;20376;-64
2022/01/03 11:28:25;;;;;;;;;;;12.40;99.90;;;;;;5069530;28;19920;-65
2022/01/03 11:30:52;;;;;;;;;;;12.50;99.90;;;;;;5085420;28;19923;-64
2022/01/03 11:33:18;;;;;;;;;;;12.60;99.90;;;;;;5073465;28;19991;-65
2022/01/03 11:35:48;;;;;;;;;;;12.60;99.90;;;;;;5073643;28;20001;-62
2022/01/03 11:38:21;;;;;;;;;;;12.60;99.90;;;;;;5054839;28;20389;-63
2022/01/03 11:40:47;;;;;;;;;;;12.60;99.90;;;;;;5072311;28;19916;-65
2022/01/03 11:43:13;;;;;;;;;;;12.60;99.90;;;;;;5071872;28;19923;-63
2022/01/03 11:45:39;;;;;;;;;;;12.60;99.90;;;;;;5075913;28;20436;-64
2022/01/03 11:48:06;;;;;;;;;;;12.60;99.90;;;;;;5073094;28;19920;-64
2022/01/03 11:50:32;;;;;;;;;;;12.60;99.90;;;;;;5072966;28;20086;-64
2022/01/03 11:52:57;;;;;;;;;;;12.70;99.90;;;;;;5072034;28;20384;-63
2022/01/03 11:55:24;;;;;;;;;;;12.70;99.90;;;;;;5070902;28;19920;-64
2022/01/03 11:58:30;;;;;;;;;;;12.70;99.90;;;;;;5068575;28;19909;-64
2022/01/03 12:03:47;;;;;;;;;;;12.80;99.90;;;;;;5072099;28;19998;-64
2022/01/03 12:06:22;;;;;;;;;;;12.80;99.90;;;;;;5068087;28;19921;-64
2022/01/03 12:08:53;;;;;;;;;;;12.90;99.90;;;;;;5068162;28;19916;-63
2022/01/03 12:11:19;;;;;;;;;;;12.90;99.90;;;;;;5067825;28;19921;-64
2022/01/03 12:13:49;;;;;;;;;;;13.00;99.90;;;;;;5067697;28;19924;-63
2022/01/03 12:16:15;;;;;;;;;;;13.10;99.90;;;;;;5069118;28;19924;-62
2022/01/03 12:19:00;;;;;;;;;;;13.10;99.90;;;;;;5070762;28;19912;-64
2022/01/03 12:21:44;;;;;;;;;;;13.10;99.90;;;;;;5070396;28;19993;-63
2022/01/03 12:24:29;;;;;;;;;;;13.20;99.90;;;;;;5067522;28;19912;-62
2022/01/03 12:27:13;;;;;;;;;;;13.20;99.90;;;;;;5067215;28;19966;-62
2022/01/03 12:29:57;;;;;;;;;;;13.20;99.90;;;;;;5067230;28;19927;-64
2022/01/03 12:32:25;;;;;;;;;;;13.30;99.90;;;;;;5067324;28;19925;-62
2022/01/03 12:35:17;;;;;;;;;;;13.30;99.90;;;;;;5067376;28;19951;-64
2022/01/03 12:37:47;;;;;;;;;;;13.30;99.90;;;;;;5049148;28;19920;-65
2022/01/03 12:40:18;;;;;;;;;;;13.30;99.90;;;;;;5068518;28;19909;-64
2022/01/03 12:42:50;;;;;;;;;;;13.30;99.90;;;;;;5070393;28;19908;-64
2022/01/03 12:45:34;;;;;;;;;;;13.30;99.90;;;;;;5067462;28;19912;-64
2022/01/03 12:50:39;;;;;;;;;;;13.20;99.90;;;;;;5067598;28;19931;-63
2022/01/03 12:53:06;;;;;;;;;;;13.30;99.90;;;;;;5067748;28;20373;-64
2022/01/03 12:55:37;;;;;;;;;;;13.30;99.90;;;;;;5067184;28;19917;-64
2022/01/03 12:58:03;;;;;;;;;;;13.30;99.90;;;;;;5069847;28;20319;-64
2022/01/03 13:00:38;;;;;;;;;;;13.30;99.90;;;;;;5069007;28;20441;-62
2022/01/03 13:03:20;;;;;;;;;;;13.30;99.90;;;;;;5066851;28;19912;-61
2022/01/03 13:06:05;;;;;;;;;;;13.30;99.90;;;;;;5068151;28;19948;-64
2022/01/03 13:08:34;;;;;;;;;;;13.30;99.90;;;;;;5066599;28;19924;-63
2022/01/03 13:11:00;;;;;;;;;;;13.20;99.90;;;;;;5067482;28;20001;-64
2022/01/03 13:13:29;;;;;;;;;;;13.20;99.90;;;;;;5068077;28;20456;-65
2022/01/03 13:15:58;;;;;;;;;;;13.20;99.90;;;;;;5069923;28;19908;-64
2022/01/03 13:18:23;;;;;;;;;;;13.20;99.90;;;;;;5053496;28;19909;-64
2022/01/03 13:20:56;;;;;;;;;;;13.20;99.90;;;;;;5067846;28;19920;-62
2022/01/03 13:23:24;;;;;;;;;;;13.30;99.90;;;;;;5066992;28;19912;-64
2022/01/03 13:26:02;;;;;;;;;;;13.20;99.90;;;;;;5068059;28;19919;-64
2022/01/03 13:28:28;;;;;;;;;;;13.30;99.90;;;;;;5035045;28;19923;-62
2022/01/03 13:31:02;;;;;;;;;;;13.20;99.90;;;;;;5070524;28;19912;-62
2022/01/03 13:33:29;;;;;;;;;;;13.30;99.90;;;;;;5069624;28;19959;-62
2022/01/03 13:35:59;;;;;;;;;;;13.30;99.90;;;;;;5066890;28;19919;-65
2022/01/03 13:38:25;;;;;;;;;;;13.30;99.90;;;;;;5065723;28;20335;-64
2022/01/03 13:40:50;;;;;;;;;;;13.30;99.90;;;;;;5068058;28;19912;-65
2022/01/03 13:43:18;;;;;;;;;;;13.20;99.90;;;;;;5067954;28;19962;-63
2022/01/03 13:51:01;;;;;;;;;;;13.20;99.90;;;;;;5068061;28;19923;-63
2022/01/03 13:53:26;;;;;;;;;;;13.20;99.90;;;;;;5054156;28;19916;-65
2022/01/03 13:55:53;;;;;;;;;;;13.10;99.90;;;;;;5067512;28;19947;-64
2022/01/03 13:58:20;;;;;;;;;;;13.20;99.90;;;;;;5067724;28;19920;-64
2022/01/03 14:00:48;;;;;;;;;;;13.30;99.90;;;;;;5071116;28;19961;-64
2022/01/03 14:03:19;;;;;;;;;;;13.20;99.90;;;;;;5066655;28;19919;-64
2022/01/03 14:05:45;;;;;;;;;;;13.20;99.90;;;;;;5067632;28;19920;-64
2022/01/03 14:08:14;;;;;;;;;;;13.20;99.90;;;;;;5067921;28;19920;-64
2022/01/03 14:10:45;;;;;;;;;;;13.30;99.90;;;;;;5064856;28;20014;-66
2022/01/03 14:13:18;;;;;;;;;;;13.30;99.90;;;;;;5068757;28;19915;-63
2022/01/03 14:15:59;;;;;;;;;;;13.20;99.90;;;;;;5070080;28;19916;-63
2022/01/03 14:18:31;;;;;;;;;;;13.20;99.90;;;;;;5070892;28;19931;-65
2022/01/03 14:21:35;;;;;;;;;;;13.10;99.90;;;;;;5070121;28;19953;-63
2022/01/03 14:24:07;;;;;;;;;;;13.10;99.90;;;;;;4965817;28;19914;-64
2022/01/03 14:26:33;;;;;;;;;;;13.10;99.90;;;;;;4980001;28;19922;-63
2022/01/03 14:29:01;;;;;;;;;;;13.10;99.90;;;;;;4980014;28;19968;-64
2022/01/03 14:31:54;;;;;;;;;;;13.10;99.90;;;;;;4990425;28;19929;-65
2022/01/03 14:34:23;;;;;;;;;;;13.00;99.90;;;;;;4987332;28;20056;-65
2022/01/03 14:36:49;;;;;;;;;;;13.00;99.90;;;;;;4992719;28;20331;-64
2022/01/03 14:39:15;;;;;;;;;;;13.00;99.90;;;;;;4990674;28;20000;-65
2022/01/03 14:41:40;;;;;;;;;;;13.00;99.90;;;;;;4991116;28;20386;-62
2022/01/03 14:44:07;;;;;;;;;;;13.00;99.90;;;;;;4990108;28;19960;-64
2022/01/03 14:46:35;;;;;;;;;;;12.90;99.90;;;;;;4988183;28;20009;-64
2022/01/03 14:49:01;;;;;;;;;;;12.80;99.90;;;;;;4989912;28;19910;-62
2022/01/03 14:51:40;;;;;;;;;;;12.80;99.90;;;;;;4981363;28;19922;-65